createdAt,value
2016-05-18T14:52:58.114Z,57.78
2016-05-18T14:53:58.320Z,57.5
2016-05-18T14:54:58.073Z,57.4
2016-05-18T14:55:57.919Z,57.59
2016-05-18T14:56:58.063Z,57.5
2016-05-18T14:57:57.690Z,57.5
2016-05-18T14:58:57.849Z,57.78
2016-05-18T15:00:02.601Z,57.4
2016-05-18T15:00:57.807Z,57.62
2016-05-18T15:01:58.012Z,57.5
2016-05-18T15:02:58.000Z,57.14
2016-05-18T15:03:57.801Z,57.23
2016-05-18T15:04:57.787Z,57.52
2016-05-18T15:05:57.978Z,57.04
2016-05-18T15:06:57.401Z,56.85
2016-05-18T15:07:57.764Z,56.56
2016-05-18T15:08:57.797Z,56.37
2016-05-18T15:10:03.207Z,56.56
2016-05-18T15:10:57.944Z,56.27
2016-05-18T15:11:57.540Z,56.68
2016-05-18T15:12:57.747Z,56.3
2016-05-18T15:13:57.952Z,55.91
2016-05-18T15:15:03.063Z,55.91
2016-05-18T15:15:57.722Z,55.53
2016-05-18T15:16:57.570Z,55.34
2016-05-18T15:17:57.916Z,55.53
2016-05-18T15:18:57.763Z,55.53
2016-05-18T15:19:57.546Z,55.46
2016-05-18T15:20:57.908Z,55.46
2016-05-18T15:21:57.911Z,55.66
2016-05-18T15:22:57.898Z,55.08
2016-05-18T15:23:58.041Z,54.99
2016-05-18T15:25:02.857Z,54.89
2016-05-18T15:25:57.688Z,54.89
2016-05-18T15:26:57.487Z,54.79
2016-05-18T15:27:57.677Z,54.43
2016-05-18T15:28:57.321Z,54.5
2016-05-18T15:29:57.870Z,54.53
2016-05-18T15:30:57.685Z,54.34
2016-05-18T15:31:57.468Z,54.05
2016-05-18T15:32:57.659Z,54.05
2016-05-18T15:33:57.678Z,54.05
2016-05-18T15:35:01.259Z,53.76
2016-05-18T15:35:57.448Z,53.66
2016-05-18T15:36:57.654Z,53.66
2016-05-18T15:37:57.656Z,53.57
2016-05-18T15:38:57.817Z,53.38
2016-05-18T15:40:02.678Z,53.47
2016-05-18T15:40:57.853Z,53.57
2016-05-18T15:41:57.652Z,53.59
2016-05-18T15:42:57.639Z,53.4
2016-05-18T15:43:57.642Z,53.02
2016-05-18T15:45:01.833Z,53.02
2016-05-18T15:45:57.694Z,53.5
2016-05-18T15:46:57.447Z,53.02
2016-05-18T15:47:57.636Z,53.21
2016-05-18T15:48:57.843Z,52.54
2016-05-18T15:49:57.846Z,52.54
2016-05-18T15:50:57.849Z,52.54
2016-05-18T15:51:57.851Z,52.37
2016-05-18T15:52:57.838Z,52.37
2016-05-18T15:53:57.419Z,52.47
2016-05-18T15:55:03.109Z,52.08
2016-05-18T15:55:57.628Z,51.98
2016-05-18T15:56:57.630Z,52.08
2016-05-18T15:57:57.836Z,52.18
2016-05-18T15:58:57.620Z,51.6
2016-05-18T16:00:01.701Z,51.79
2016-05-18T16:00:57.828Z,52.18
2016-05-18T16:01:57.629Z,52.18
2016-05-18T16:03:03.490Z,51.89
2016-05-18T16:03:57.618Z,51.41
2016-05-18T16:04:57.620Z,51.72
2016-05-18T16:05:57.623Z,51.92
2016-05-18T16:06:57.829Z,51.72
2016-05-18T16:07:57.409Z,51.62
2016-05-18T16:08:58.272Z,51.24
2016-05-18T16:10:01.837Z,51.62
2016-05-18T16:10:57.465Z,51.43
2016-05-18T16:11:57.811Z,51.34
2016-05-18T16:12:57.611Z,51.43
2016-05-18T16:13:57.254Z,51.05
2016-05-18T16:14:57.616Z,51.14
2016-05-18T16:15:57.619Z,51.24
2016-05-18T16:16:57.419Z,51.46
2016-05-18T16:17:57.811Z,50.88
2016-05-18T16:18:57.611Z,50.98
2016-05-18T16:19:57.614Z,50.78
2016-05-18T16:20:57.617Z,50.69
2016-05-18T16:21:57.603Z,50.88
2016-05-18T16:22:57.622Z,50.59
2016-05-18T16:23:57.812Z,50.59
2016-05-18T16:25:03.628Z,50.69
2016-05-18T16:25:57.396Z,50.49
2016-05-18T16:26:57.460Z,50.59
2016-05-18T16:27:57.807Z,50.4
2016-05-18T16:28:57.607Z,50.59
2016-05-18T16:30:02.625Z,50.59
2016-05-18T16:30:57.800Z,50.59
2016-05-18T16:31:57.600Z,50.59
2016-05-18T16:32:57.399Z,50.59
2016-05-18T16:33:57.418Z,50.57
2016-05-18T16:34:57.592Z,50.47
2016-05-18T16:35:57.813Z,50.49
2016-05-18T16:36:57.629Z,50.69
2016-05-18T16:37:57.600Z,50.69
2016-05-18T16:38:57.603Z,50.69
2016-05-18T16:40:01.090Z,50.49
2016-05-18T16:40:57.437Z,50.49
2016-05-18T16:41:57.611Z,50.4
2016-05-18T16:42:57.614Z,50.59
2016-05-18T16:43:57.632Z,50.4
2016-05-18T16:45:00.385Z,50.69
2016-05-18T16:45:57.808Z,50.49
2016-05-18T16:46:57.592Z,50.4
2016-05-18T16:47:57.611Z,50.59
2016-05-18T16:48:57.395Z,50.69
2016-05-18T16:50:01.819Z,50.4
2016-05-18T16:50:57.603Z,50.3
2016-05-18T16:51:57.606Z,50.3
2016-05-18T16:52:57.594Z,50.78
2016-05-18T16:53:57.799Z,51.07
2016-05-18T16:54:57.802Z,50.69
2016-05-18T16:55:57.602Z,50.78
2016-05-18T16:56:57.605Z,50.98
2016-05-18T16:57:57.810Z,50.98
2016-05-18T16:58:57.594Z,50.88
